createdAt,value
2019-02-23T00:00:55.102Z,14.00
2019-02-23T00:03:23.422Z,13.70
2019-02-23T00:05:51.638Z,14.00
2019-02-23T00:08:19.797Z,13.90
2019-02-23T00:10:48.006Z,13.90
2019-02-23T00:13:16.267Z,13.90
2019-02-23T00:15:44.750Z,13.80
2019-02-23T00:18:12.902Z,13.70
2019-02-23T00:20:41.109Z,13.60
2019-02-23T00:23:09.710Z,13.60
2019-02-23T00:25:37.933Z,13.60
2019-02-23T00:28:06.538Z,13.60
2019-02-23T00:30:34.650Z,13.70
2019-02-23T00:33:02.822Z,13.60
2019-02-23T00:35:30.914Z,13.70
2019-02-23T00:37:59.006Z,13.60
2019-02-23T00:40:27.534Z,13.50
2019-02-23T00:42:55.644Z,13.40
2019-02-23T00:45:23.821Z,13.30
2019-02-23T00:47:51.932Z,13.10
2019-02-23T00:50:20.533Z,13.00
2019-02-23T00:52:48.754Z,13.00
2019-02-23T00:55:16.921Z,13.00
2019-02-23T00:57:45.029Z,13.00
2019-02-23T01:00:13.563Z,12.90
2019-02-23T01:02:41.705Z,12.80
2019-02-23T01:05:12.191Z,12.70
2019-02-23T01:07:40.485Z,12.70
2019-02-23T01:10:09.677Z,12.80
2019-02-23T01:12:38.140Z,12.90
2019-02-23T01:15:07.858Z,13.00
2019-02-23T01:17:36.067Z,13.00
2019-02-23T01:20:04.765Z,13.00
2019-02-23T01:22:33.426Z,13.00
2019-02-23T01:25:01.803Z,12.90
2019-02-23T01:27:29.906Z,12.80
2019-02-23T01:29:58.058Z,12.70
2019-02-23T01:32:26.167Z,12.70
2019-02-23T01:34:54.409Z,12.70
2019-02-23T01:37:22.727Z,12.70
2019-02-23T01:39:50.894Z,12.80
2019-02-23T01:42:19.448Z,12.80
2019-02-23T01:44:47.607Z,12.70
2019-02-23T01:47:15.829Z,12.60
2019-02-23T01:49:43.968Z,12.60
2019-02-23T01:52:12.078Z,12.60
2019-02-23T01:54:40.327Z,12.60
2019-02-23T01:57:08.439Z,12.60
2019-02-23T01:59:36.662Z,12.70
2019-02-23T02:02:04.873Z,12.70
2019-02-23T02:04:33.082Z,12.60
2019-02-23T02:07:01.187Z,12.60
2019-02-23T02:09:29.441Z,12.60
2019-02-23T02:11:57.554Z,12.60
2019-02-23T02:14:25.929Z,12.60
2019-02-23T02:16:54.335Z,12.70
2019-02-23T02:19:22.486Z,12.60
2019-02-23T02:21:51.161Z,12.70
2019-02-23T02:24:19.402Z,12.70
2019-02-23T02:26:47.498Z,12.70
2019-02-23T02:29:16.039Z,12.70
2019-02-23T02:31:44.198Z,12.70
2019-02-23T02:34:15.011Z,12.70
2019-02-23T02:36:43.643Z,12.70
2019-02-23T02:39:13.083Z,12.70
2019-02-23T02:41:41.440Z,12.70
2019-02-23T02:44:09.642Z,12.70
2019-02-23T02:46:37.901Z,12.60
2019-02-23T02:49:06.218Z,12.70
2019-02-23T02:51:34.462Z,12.70
2019-02-23T02:54:02.703Z,12.70
2019-02-23T02:56:30.959Z,12.70
2019-02-23T02:58:59.177Z,12.70
2019-02-23T03:01:27.425Z,12.70
2019-02-23T03:03:55.606Z,12.70
2019-02-23T03:06:23.806Z,12.70
2019-02-23T03:08:52.015Z,12.50
2019-02-23T03:11:20.186Z,12.40
2019-02-23T03:13:48.743Z,12.40
2019-02-23T03:16:17.723Z,12.40
2019-02-23T03:18:46.818Z,12.40
2019-02-23T03:21:14.969Z,12.30
2019-02-23T03:23:43.086Z,12.40
2019-02-23T03:26:11.313Z,12.40
2019-02-23T03:28:39.558Z,12.30
2019-02-23T03:31:07.723Z,12.40
2019-02-23T03:33:35.953Z,12.40
2019-02-23T03:36:04.939Z,12.30
2019-02-23T03:38:33.058Z,12.30
2019-02-23T03:41:01.204Z,12.30
2019-02-23T03:43:29.413Z,12.30
2019-02-23T03:45:57.561Z,12.30
2019-02-23T03:48:25.839Z,12.30
2019-02-23T03:50:53.992Z,12.30
2019-02-23T03:53:22.194Z,12.30
2019-02-23T03:55:50.802Z,12.20
2019-02-23T03:58:19.207Z,12.20
2019-02-23T04:00:47.893Z,12.20
2019-02-23T04:03:16.059Z,12.10
2019-02-23T04:05:44.273Z,12.00
2019-02-23T04:08:12.480Z,11.90
2019-02-23T04:10:41.043Z,11.80
2019-02-23T04:13:09.254Z,11.80
2019-02-23T04:15:37.362Z,11.80
2019-02-23T04:18:05.626Z,11.80
2019-02-23T04:20:33.742Z,11.80
2019-02-23T04:23:01.894Z,11.60
2019-02-23T04:25:30.557Z,11.50
2019-02-23T04:27:59.071Z,11.50
2019-02-23T04:30:27.177Z,11.40
2019-02-23T04:32:55.424Z,11.30
2019-02-23T04:35:23.609Z,11.20
2019-02-23T04:37:51.851Z,11.20
2019-02-23T04:40:19.983Z,11.20
2019-02-23T04:42:48.130Z,11.10
2019-02-23T04:45:16.496Z,10.90
2019-02-23T04:47:44.647Z,10.90
2019-02-23T04:50:12.968Z,10.80
2019-02-23T04:52:41.138Z,10.80
2019-02-23T04:55:09.333Z,10.70
2019-02-23T04:57:37.501Z,10.70
2019-02-23T05:00:06.831Z,10.70
2019-02-23T05:02:35.002Z,10.70
2019-02-23T05:05:03.368Z,10.70
2019-02-23T05:07:31.623Z,10.70
2019-02-23T05:10:00.413Z,10.60
2019-02-23T05:12:28.551Z,10.60
2019-02-23T05:14:56.668Z,10.60
2019-02-23T05:17:24.824Z,10.60
2019-02-23T05:19:52.951Z,10.60
2019-02-23T05:22:21.109Z,10.50
2019-02-23T05:24:49.224Z,10.40
2019-02-23T05:27:17.478Z,10.50
2019-02-23T05:29:45.586Z,10.50
2019-02-23T05:32:13.747Z,10.50
2019-02-23T05:34:41.852Z,10.50
2019-02-23T05:37:10.461Z,10.50
2019-02-23T05:39:38.660Z,10.50
2019-02-23T05:42:06.913Z,10.50
2019-02-23T05:44:35.015Z,10.40
2019-02-23T05:47:04.168Z,10.50
2019-02-23T05:49:32.267Z,10.50
2019-02-23T05:52:00.411Z,10.50
2019-02-23T05:54:28.630Z,10.40
2019-02-23T05:56:56.891Z,10.30
2019-02-23T05:59:25.105Z,10.30
2019-02-23T06:01:53.211Z,10.30
2019-02-23T06:04:21.710Z,10.30
2019-02-23T06:06:49.916Z,10.30
2019-02-23T06:09:18.563Z,10.30
2019-02-23T06:11:46.673Z,10.30
2019-02-23T06:14:14.828Z,10.30
2019-02-23T06:16:42.946Z,10.40
2019-02-23T06:19:11.107Z,10.40
2019-02-23T06:21:52.327Z,10.40
2019-02-23T06:24:09.271Z,10.40
2019-02-23T06:26:37.369Z,10.30
2019-02-23T06:29:05.522Z,10.30
2019-02-23T06:31:33.631Z,10.40
2019-02-23T06:34:12.515Z,10.40
2019-02-23T06:36:32.571Z,10.30
2019-02-23T06:39:01.086Z,10.40
2019-02-23T06:41:29.187Z,10.40
2019-02-23T06:43:57.346Z,10.30
2019-02-23T06:46:25.445Z,10.30
2019-02-23T06:48:53.597Z,10.20
2019-02-23T06:51:21.807Z,10.20
2019-02-23T06:53:49.962Z,10.20
2019-02-23T06:56:18.168Z,10.20
2019-02-23T06:58:46.327Z,10.10
2019-02-23T07:01:14.430Z,10.10
2019-02-23T07:03:42.607Z,10.20
2019-02-23T07:06:11.229Z,10.20
2019-02-23T07:08:39.890Z,10.20
2019-02-23T07:11:07.974Z,10.30
2019-02-23T07:13:36.121Z,10.30
2019-02-23T07:16:04.730Z,10.40
2019-02-23T07:18:32.870Z,10.40
2019-02-23T07:21:01.432Z,10.60
2019-02-23T07:23:29.570Z,10.60
2019-02-23T07:25:58.234Z,10.80
2019-02-23T07:28:26.422Z,10.80
2019-02-23T07:30:54.605Z,10.90
2019-02-23T07:33:32.389Z,11.00
2019-02-23T07:35:53.041Z,11.10
2019-02-23T07:38:21.186Z,11.10
2019-02-23T07:40:49.271Z,11.20
2019-02-23T07:43:17.929Z,11.30
2019-02-23T07:45:46.118Z,11.30
2019-02-23T07:48:14.249Z,11.40
2019-02-23T07:50:42.334Z,11.40
2019-02-23T07:53:10.555Z,11.50
2019-02-23T07:55:39.244Z,11.60
2019-02-23T07:58:07.325Z,11.70
2019-02-23T08:00:35.562Z,11.80
2019-02-23T08:03:04.153Z,11.80
2019-02-23T08:05:32.405Z,11.90
2019-02-23T08:08:00.541Z,12.00
2019-02-23T08:10:28.684Z,12.00
2019-02-23T08:12:56.887Z,12.20
2019-02-23T08:15:25.126Z,12.40
2019-02-23T08:17:53.214Z,12.60
2019-02-23T08:20:21.458Z,12.90
2019-02-23T08:22:49.554Z,13.10
2019-02-23T08:25:17.750Z,13.30
2019-02-23T08:27:45.942Z,13.50
2019-02-23T08:30:14.537Z,13.70
2019-02-23T08:32:42.624Z,13.80
2019-02-23T08:35:11.929Z,14.00
2019-02-23T08:37:40.031Z,14.00
2019-02-23T08:40:09.124Z,14.20
2019-02-23T08:42:37.236Z,14.20
2019-02-23T08:45:06.393Z,14.30
2019-02-23T08:47:34.491Z,14.40
2019-02-23T08:50:02.639Z,14.50
2019-02-23T08:52:31.315Z,14.40
2019-02-23T08:54:59.765Z,14.40
2019-02-23T08:57:27.846Z,14.40
2019-02-23T09:00:03.193Z,14.40
2019-02-23T09:02:32.108Z,14.40
2019-02-23T09:05:01.444Z,14.50
2019-02-23T09:07:30.058Z,14.50
2019-02-23T09:09:58.910Z,14.50
2019-02-23T09:12:27.852Z,14.60
2019-02-23T09:14:58.374Z,14.50
2019-02-23T09:17:26.731Z,14.70
2019-02-23T09:19:55.294Z,14.70
2019-02-23T09:22:23.791Z,14.80
2019-02-23T09:24:53.009Z,14.90
2019-02-23T09:27:21.845Z,14.90
2019-02-23T09:29:50.231Z,15.00
2019-02-23T09:32:18.604Z,15.10
2019-02-23T09:34:46.952Z,15.20
2019-02-23T09:37:15.353Z,15.20
2019-02-23T09:39:45.226Z,15.40
2019-02-23T09:42:13.831Z,15.40
2019-02-23T09:44:42.698Z,15.40
2019-02-23T09:47:10.921Z,15.50
2019-02-23T09:49:39.106Z,15.50
2019-02-23T09:52:08.081Z,15.60
2019-02-23T09:54:36.817Z,15.70
2019-02-23T09:57:05.021Z,15.80
2019-02-23T09:59:34.338Z,15.80
2019-02-23T10:02:03.146Z,15.80
2019-02-23T10:04:31.416Z,15.90
2019-02-23T10:07:01.406Z,15.90
2019-02-23T10:09:29.878Z,16.00
2019-02-23T10:11:58.723Z,16.10
2019-02-23T10:14:27.149Z,16.10
2019-02-23T10:16:55.994Z,16.10
2019-02-23T10:19:24.997Z,16.10
2019-02-23T10:21:53.919Z,16.20
2019-02-23T10:24:22.634Z,16.20
2019-02-23T10:26:50.922Z,16.20
2019-02-23T10:29:19.132Z,16.30
2019-02-23T10:31:47.757Z,16.40
2019-02-23T10:34:15.877Z,16.40
2019-02-23T10:36:44.293Z,16.50
2019-02-23T10:39:12.514Z,16.60
2019-02-23T10:41:40.736Z,16.80
2019-02-23T10:44:08.961Z,16.90
2019-02-23T10:46:37.197Z,17.00
2019-02-23T10:49:05.640Z,17.20
2019-02-23T10:51:34.010Z,17.40
2019-02-23T10:54:02.409Z,17.50
2019-02-23T10:56:31.189Z,17.60
2019-02-23T10:58:59.634Z,17.70
2019-02-23T11:01:27.908Z,17.80
2019-02-23T11:03:56.307Z,17.90
2019-02-23T11:06:25.267Z,18.00
2019-02-23T11:09:02.731Z,18.30
2019-02-23T11:11:31.021Z,18.30
2019-02-23T11:13:59.610Z,18.70
2019-02-23T11:16:27.854Z,18.90
2019-02-23T11:18:57.456Z,19.00
2019-02-23T11:21:27.773Z,19.20
2019-02-23T11:23:56.112Z,19.20
2019-02-23T11:26:24.720Z,19.30
2019-02-23T11:28:53.187Z,19.20
2019-02-23T11:31:21.611Z,19.50
2019-02-23T11:33:49.826Z,19.60
2019-02-23T11:36:17.994Z,19.80
2019-02-23T11:38:46.110Z,19.90
2019-02-23T11:41:32.439Z,20.10
2019-02-23T11:44:00.574Z,20.20
2019-02-23T11:46:28.728Z,20.30
2019-02-23T11:48:56.838Z,20.40
2019-02-23T11:51:25.005Z,20.40
2019-02-23T11:53:55.262Z,20.40
2019-02-23T11:56:23.189Z,20.40
2019-02-23T11:58:51.304Z,20.40
2019-02-23T12:01:19.480Z,20.60
2019-02-23T12:03:47.824Z,20.50
2019-02-23T12:06:16.529Z,20.50
2019-02-23T12:08:44.713Z,20.60
2019-02-23T12:11:12.854Z,20.60
2019-02-23T12:13:41.051Z,20.70
2019-02-23T12:16:09.174Z,20.70
2019-02-23T12:18:37.445Z,20.70
2019-02-23T12:21:06.081Z,20.90
2019-02-23T12:23:34.708Z,20.90
2019-02-23T12:26:02.921Z,20.90
2019-02-23T12:28:31.078Z,21.00
2019-02-23T12:30:59.170Z,21.10
2019-02-23T12:33:27.342Z,21.20
2019-02-23T12:35:55.451Z,21.20
2019-02-23T12:38:23.640Z,21.20
2019-02-23T12:40:51.732Z,21.20
2019-02-23T12:43:20.019Z,21.20
2019-02-23T12:45:48.556Z,21.30
2019-02-23T12:48:16.711Z,21.30
2019-02-23T12:50:45.213Z,21.30
2019-02-23T12:53:13.384Z,21.30
2019-02-23T12:55:41.591Z,21.30
2019-02-23T12:58:09.922Z,21.40
2019-02-23T13:00:38.039Z,21.30
2019-02-23T13:03:06.421Z,21.40
2019-02-23T13:05:34.654Z,21.50
2019-02-23T13:08:02.982Z,21.50
2019-02-23T13:10:31.110Z,21.60
2019-02-23T13:13:13.884Z,21.60
2019-02-23T13:15:56.436Z,21.80
2019-02-23T13:19:06.514Z,21.90
2019-02-23T13:22:15.201Z,21.80
2019-02-23T13:25:24.789Z,21.70
2019-02-23T13:28:21.336Z,21.70
2019-02-23T13:31:17.869Z,21.60
2019-02-23T13:34:38.932Z,21.50
2019-02-23T13:37:38.043Z,21.30
2019-02-23T13:40:34.850Z,21.10
2019-02-23T13:43:25.737Z,21.10
2019-02-23T13:46:35.137Z,21.00
2019-02-23T13:49:29.101Z,20.90
2019-02-23T13:52:26.207Z,20.90
2019-02-23T13:55:41.571Z,20.80
2019-02-23T13:58:22.367Z,20.80
2019-02-23T14:01:17.743Z,20.80
2019-02-23T14:03:58.449Z,20.90
2019-02-23T14:06:46.089Z,20.90
2019-02-23T14:09:40.088Z,21.00
2019-02-23T14:12:18.293Z,21.10
2019-02-23T14:15:12.067Z,21.10
2019-02-23T14:18:25.834Z,21.20
2019-02-23T14:21:16.618Z,21.20
2019-02-23T14:23:58.235Z,21.20
2019-02-23T14:27:29.174Z,21.30
2019-02-23T14:30:46.119Z,21.30
2019-02-23T14:34:06.909Z,21.30
2019-02-23T14:37:24.425Z,21.20
2019-02-23T14:40:45.953Z,21.10
2019-02-23T14:43:51.887Z,21.00
2019-02-23T14:46:57.235Z,21.10
2019-02-23T14:49:54.192Z,21.10
2019-02-23T14:52:47.799Z,21.00
2019-02-23T14:55:39.916Z,20.90
2019-02-23T14:58:31.450Z,20.90
2019-02-23T15:01:22.566Z,20.80
2019-02-23T15:04:28.629Z,20.80
2019-02-23T15:07:29.235Z,20.80
2019-02-23T15:10:41.273Z,20.70
2019-02-23T15:13:44.041Z,20.70
2019-02-23T15:16:53.356Z,20.60
2019-02-23T15:19:57.561Z,20.50
2019-02-23T15:23:05.546Z,20.50
2019-02-23T15:26:08.310Z,20.30
2019-02-23T15:29:07.048Z,20.30
2019-02-23T15:31:57.779Z,20.20
2019-02-23T15:34:48.851Z,20.30
2019-02-23T15:37:59.165Z,20.20
2019-02-23T15:40:58.463Z,20.20
2019-02-23T15:43:59.033Z,20.00
2019-02-23T15:47:17.950Z,20.00
2019-02-23T15:49:46.069Z,19.90
2019-02-23T15:52:14.269Z,19.80
2019-02-23T15:54:42.537Z,19.80
2019-02-23T15:57:10.661Z,19.80
2019-02-23T15:59:38.817Z,19.80
2019-02-23T16:02:07.038Z,19.80
2019-02-23T16:04:35.214Z,19.80
2019-02-23T16:07:03.584Z,19.70
2019-02-23T16:09:32.285Z,19.70
2019-02-23T16:12:00.891Z,19.50
2019-02-23T16:14:29.070Z,19.30
2019-02-23T16:16:59.478Z,19.10
2019-02-23T16:19:28.218Z,18.90
2019-02-23T16:21:56.763Z,18.70
2019-02-23T16:24:25.314Z,18.60
2019-02-23T16:26:53.407Z,18.50
2019-02-23T16:29:21.554Z,18.30
2019-02-23T16:31:49.873Z,18.20
2019-02-23T16:34:18.052Z,18.20
2019-02-23T16:36:46.249Z,18.10
2019-02-23T16:39:14.965Z,18.00
2019-02-23T16:41:43.569Z,17.90
2019-02-23T16:44:12.242Z,17.80
2019-02-23T16:46:40.347Z,17.70
2019-02-23T16:49:08.596Z,17.70
2019-02-23T16:51:36.855Z,17.60
2019-02-23T16:54:05.125Z,17.50
2019-02-23T16:56:33.434Z,17.50
2019-02-23T16:59:01.620Z,17.40
2019-02-23T17:01:30.231Z,17.30
2019-02-23T17:03:58.413Z,17.30
2019-02-23T17:06:26.507Z,17.20
2019-02-23T17:08:54.793Z,17.10
2019-02-23T17:11:23.338Z,16.90
2019-02-23T17:13:51.854Z,16.80
2019-02-23T17:16:20.878Z,16.70
2019-02-23T17:18:49.047Z,16.50
2019-02-23T17:21:17.130Z,16.40
2019-02-23T17:23:45.696Z,16.30
2019-02-23T17:26:14.018Z,16.20
2019-02-23T17:28:42.440Z,16.10
2019-02-23T17:31:10.526Z,16.00
2019-02-23T17:33:38.731Z,16.00
2019-02-23T17:36:06.818Z,15.90
2019-02-23T17:38:34.905Z,15.80
2019-02-23T17:41:03.460Z,15.80
2019-02-23T17:43:31.545Z,15.80
2019-02-23T17:46:00.022Z,15.70
2019-02-23T17:48:28.109Z,15.60
2019-02-23T17:50:56.551Z,15.50
2019-02-23T17:53:24.638Z,15.50
2019-02-23T17:55:52.781Z,15.40
2019-02-23T17:58:21.334Z,15.40
2019-02-23T18:00:50.181Z,15.30
2019-02-23T18:03:18.566Z,15.30
2019-02-23T18:05:46.803Z,15.20
2019-02-23T18:08:14.942Z,15.20
2019-02-23T18:10:43.617Z,15.00
2019-02-23T18:13:12.106Z,15.00
2019-02-23T18:15:40.224Z,14.90
2019-02-23T18:18:08.319Z,14.80
2019-02-23T18:20:36.865Z,14.70
2019-02-23T18:23:05.045Z,14.60
2019-02-23T18:25:33.178Z,14.50
2019-02-23T18:28:01.273Z,14.40
2019-02-23T18:30:31.607Z,14.30
2019-02-23T18:32:59.697Z,14.10
2019-02-23T18:35:27.859Z,14.00
2019-02-23T18:37:55.972Z,13.80
2019-02-23T18:40:24.146Z,13.70
2019-02-23T18:42:52.354Z,13.60
2019-02-23T18:45:21.002Z,13.50
2019-02-23T18:47:49.694Z,13.30
2019-02-23T18:50:17.957Z,13.20
2019-02-23T18:52:46.067Z,13.10
2019-02-23T18:55:14.342Z,13.00
2019-02-23T18:57:42.553Z,13.00
2019-02-23T19:00:11.661Z,12.80
2019-02-23T19:02:39.779Z,12.70
2019-02-23T19:05:09.855Z,12.60
2019-02-23T19:07:38.655Z,12.50
2019-02-23T19:10:08.696Z,12.30
2019-02-23T19:12:36.860Z,12.20
2019-02-23T19:15:06.255Z,12.10
2019-02-23T19:17:34.457Z,12.00
2019-02-23T19:20:02.782Z,12.00
2019-02-23T19:22:31.295Z,11.90
2019-02-23T19:24:59.506Z,11.80
2019-02-23T19:27:27.615Z,11.70
2019-02-23T19:29:55.764Z,11.60
2019-02-23T19:32:24.521Z,11.50
2019-02-23T19:34:52.609Z,11.40
2019-02-23T19:37:20.870Z,11.30
2019-02-23T19:39:48.971Z,11.20
2019-02-23T19:42:17.121Z,11.20
2019-02-23T19:44:45.232Z,11.20
2019-02-23T19:47:16.307Z,11.10
2019-02-23T19:49:44.422Z,11.10
2019-02-23T19:52:15.399Z,11.10
2019-02-23T19:54:43.548Z,11.00
2019-02-23T19:57:11.802Z,10.90
2019-02-23T19:59:39.906Z,10.90
2019-02-23T20:02:08.063Z,10.90
2019-02-23T20:04:36.606Z,10.60
2019-02-23T20:07:05.300Z,10.70
2019-02-23T20:09:33.444Z,10.70
2019-02-23T20:12:01.650Z,10.80
2019-02-23T20:14:30.567Z,10.80
2019-02-23T20:16:58.895Z,10.80
2019-02-23T20:19:27.161Z,10.70
2019-02-23T20:21:55.326Z,10.80
2019-02-23T20:24:23.891Z,10.90
2019-02-23T20:26:55.547Z,10.90
2019-02-23T20:29:22.049Z,10.90
2019-02-23T20:31:54.825Z,10.90
2019-02-23T20:34:23.781Z,10.90
2019-02-23T20:36:51.945Z,10.90
2019-02-23T20:39:20.530Z,10.90
2019-02-23T20:41:48.705Z,10.90
2019-02-23T20:44:16.931Z,10.90
2019-02-23T20:46:45.287Z,10.90
2019-02-23T20:49:14.006Z,10.90
2019-02-23T20:51:42.283Z,10.90
2019-02-23T20:54:10.409Z,10.90
2019-02-23T20:56:41.562Z,10.90
2019-02-23T20:59:09.774Z,10.90
2019-02-23T21:01:38.038Z,10.90
2019-02-23T21:04:06.180Z,10.90
2019-02-23T21:06:34.452Z,10.80
2019-02-23T21:09:02.797Z,10.80
2019-02-23T21:11:30.967Z,10.80
2019-02-23T21:14:00.319Z,10.70
2019-02-23T21:16:28.582Z,10.70
2019-02-23T21:18:56.685Z,10.80
2019-02-23T21:21:24.935Z,10.80
2019-02-23T21:23:57.504Z,10.90
2019-02-23T21:26:27.343Z,10.90
2019-02-23T21:28:55.571Z,11.00
2019-02-23T21:31:23.687Z,10.90
2019-02-23T21:33:51.851Z,10.80
2019-02-23T21:36:22.839Z,10.80
2019-02-23T21:38:51.498Z,10.70
2019-02-23T21:41:21.709Z,10.80
2019-02-23T21:43:55.034Z,10.80
2019-02-23T21:46:25.899Z,10.70
2019-02-23T21:48:54.055Z,10.70
2019-02-23T21:51:22.164Z,10.70
2019-02-23T21:53:50.390Z,10.80
2019-02-23T21:56:18.502Z,10.60
2019-02-23T21:58:46.727Z,10.50
2019-02-23T22:01:14.947Z,10.50
2019-02-23T22:03:43.115Z,10.40
2019-02-23T22:06:12.400Z,10.40
2019-02-23T22:08:45.246Z,10.40
2019-02-23T22:11:13.927Z,10.40
2019-02-23T22:13:43.713Z,10.40
2019-02-23T22:16:19.006Z,10.40
2019-02-23T22:18:52.376Z,10.40
2019-02-23T22:21:20.893Z,10.40
2019-02-23T22:24:01.889Z,10.50
2019-02-23T22:26:33.239Z,10.40
2019-02-23T22:29:01.466Z,10.40
2019-02-23T22:31:37.315Z,10.50
2019-02-23T22:34:06.252Z,10.50
2019-02-23T22:36:55.398Z,10.60
2019-02-23T22:39:23.591Z,10.60
2019-02-23T22:41:51.790Z,10.70
2019-02-23T22:44:20.506Z,10.80
2019-02-23T22:46:48.707Z,10.90
2019-02-23T22:49:18.894Z,11.00
2019-02-23T22:51:48.112Z,11.00
2019-02-23T22:54:16.767Z,11.00
2019-02-23T22:56:44.906Z,11.00
2019-02-23T22:59:13.078Z,10.90
2019-02-23T23:01:41.381Z,11.00
2019-02-23T23:04:10.283Z,11.00
2019-02-23T23:06:38.425Z,11.00
2019-02-23T23:09:16.148Z,11.00
2019-02-23T23:11:45.489Z,11.00
2019-02-23T23:14:14.034Z,11.00
2019-02-23T23:16:44.714Z,11.00
2019-02-23T23:19:13.282Z,11.10
2019-02-23T23:21:43.137Z,11.00
2019-02-23T23:24:11.704Z,11.00
2019-02-23T23:26:39.797Z,11.10
2019-02-23T23:29:07.955Z,11.00
2019-02-23T23:31:36.061Z,11.00
2019-02-23T23:34:04.343Z,11.00
2019-02-23T23:36:32.455Z,11.00
2019-02-23T23:39:00.615Z,11.10
2019-02-23T23:41:28.716Z,11.00
2019-02-23T23:43:56.905Z,11.10
2019-02-23T23:46:25.507Z,11.10
2019-02-23T23:48:53.662Z,11.10
2019-02-23T23:51:21.796Z,11.10
2019-02-23T23:53:49.962Z,11.10
2019-02-23T23:56:18.213Z,11.10
2019-02-23T23:58:46.511Z,11.10
